Time,TemperatureF,DewpointF,PressureIn,WindDirection,WindDirectionDegrees,WindSpeedMPH,WindSpeedGustMPH,Humidity,HourlyPrecipIn,Conditions,Clouds,dailyrainin,SolarRadiationWatts/m^2,SoftwareType,DateUTC
2013-03-24 00:03:00,41.0,39.0,30.03,South,176,3.0,8.0,94,0.00,,,0.01,0.000000,,2013-03-24 04:03:00,
2013-03-24 00:10:00,39.0,38.0,30.02,WSW,245,2.0,5.0,97,0.00,,,0.01,0.000000,,2013-03-24 04:10:00,
2013-03-24 00:33:00,39.0,38.0,30.02,WSW,245,2.0,5.0,97,0.00,,,0.01,0.000000,,2013-03-24 04:33:00,
2013-03-24 00:43:00,39.0,38.0,30.02,WSW,245,2.0,5.0,97,0.00,,,0.01,0.000000,,2013-03-24 04:43:00,
2013-03-24 00:53:00,39.0,38.0,30.02,WSW,245,2.0,5.0,97,0.00,,,0.01,0.000000,,2013-03-24 04:53:00,
2013-03-24 01:03:00,39.0,38.0,30.02,WSW,245,2.0,5.0,97,0.00,,,0.01,0.000000,,2013-03-24 05:03:00,
2013-03-24 01:10:00,39.0,38.0,29.97,NNE,19,2.0,5.0,97,0.00,,,0.01,0.000000,,2013-03-24 05:10:00,
2013-03-24 01:33:00,39.0,38.0,29.97,NNE,19,2.0,5.0,97,0.00,,,0.01,0.000000,,2013-03-24 05:33:00,
2013-03-24 01:43:00,39.0,38.0,29.97,NNE,19,2.0,5.0,97,0.00,,,0.01,0.000000,,2013-03-24 05:43:00,
2013-03-24 01:52:00,39.0,38.0,29.97,NNE,19,2.0,5.0,97,0.00,,,0.01,0.000000,,2013-03-24 05:52:00,
2013-03-24 02:02:00,39.0,38.0,29.97,NNE,19,2.0,5.0,97,0.00,,,0.01,0.000000,,2013-03-24 06:02:00,
2013-03-24 02:10:00,42.0,40.0,30.03,WSW,247,2.0,7.0,94,0.00,,,0.01,0.000000,,2013-03-24 06:10:00,
2013-03-24 02:32:00,42.0,40.0,30.03,WSW,247,2.0,7.0,94,0.00,,,0.01,0.000000,,2013-03-24 06:32:00,
2013-03-24 02:42:00,42.0,40.0,30.03,WSW,247,2.0,7.0,94,0.00,,,0.01,0.000000,,2013-03-24 06:42:00,
2013-03-24 02:52:00,42.0,40.0,30.03,WSW,247,2.0,7.0,94,0.00,,,0.01,0.000000,,2013-03-24 06:52:00,
2013-03-24 03:02:00,42.0,40.0,30.03,WSW,247,2.0,7.0,94,0.00,,,0.01,0.000000,,2013-03-24 07:02:00,
2013-03-24 03:10:00,42.0,40.0,29.99,NE,35,3.0,7.0,92,0.00,,,0.01,0.000000,,2013-03-24 07:10:00,
2013-03-24 03:32:00,42.0,40.0,29.99,NE,35,3.0,7.0,92,0.00,,,0.01,0.000000,,2013-03-24 07:32:00,
2013-03-24 03:42:00,42.0,40.0,29.99,NE,35,3.0,7.0,92,0.00,,,0.01,0.000000,,2013-03-24 07:42:00,
2013-03-24 03:52:00,42.0,40.0,29.99,NE,35,3.0,7.0,92,0.00,,,0.01,0.000000,,2013-03-24 07:52:00,
2013-03-24 04:03:00,42.0,40.0,29.99,NE,35,3.0,7.0,92,0.00,,,0.01,0.000000,,2013-03-24 08:03:00,
2013-03-24 04:10:00,43.0,42.0,29.95,NE,44,2.0,7.0,96,0.03,,,0.04,0.000000,,2013-03-24 08:10:00,
2013-03-24 04:32:00,43.0,42.0,29.95,NE,44,2.0,7.0,96,0.03,,,0.04,0.000000,,2013-03-24 08:32:00,
2013-03-24 04:42:00,43.0,42.0,29.95,NE,44,2.0,7.0,96,0.03,,,0.04,0.000000,,2013-03-24 08:42:00,
2013-03-24 04:52:00,43.0,42.0,29.95,NE,44,2.0,7.0,96,0.03,,,0.04,0.000000,,2013-03-24 08:52:00,
2013-03-24 05:02:00,43.0,42.0,29.95,NE,44,2.0,7.0,96,0.03,,,0.04,0.000000,,2013-03-24 09:02:00,
2013-03-24 05:10:00,42.0,41.0,29.91,NE,35,3.0,8.0,97,0.11,,,0.15,0.000000,,2013-03-24 09:10:00,
2013-03-24 05:33:00,42.0,41.0,29.91,NE,35,3.0,8.0,97,0.11,,,0.15,0.000000,,2013-03-24 09:33:00,
2013-03-24 05:43:00,42.0,41.0,29.91,NE,35,3.0,8.0,97,0.11,,,0.15,0.000000,,2013-03-24 09:43:00,
2013-03-24 05:53:00,42.0,41.0,29.91,NE,35,3.0,8.0,97,0.11,,,0.15,0.000000,,2013-03-24 09:53:00,
2013-03-24 06:03:00,42.0,41.0,29.91,NE,35,3.0,8.0,97,0.11,,,0.15,0.000000,,2013-03-24 10:03:00,
2013-03-24 06:10:00,42.0,41.0,29.88,NE,49,7.0,15.0,97,0.08,,,0.23,0.000000,,2013-03-24 10:10:00,
2013-03-24 06:42:00,42.0,41.0,29.88,NE,49,7.0,15.0,97,0.08,,,0.23,0.000000,,2013-03-24 10:42:00,
2013-03-24 06:53:00,42.0,41.0,29.88,NE,49,7.0,15.0,97,0.08,,,0.23,0.000000,,2013-03-24 10:53:00,
2013-03-24 07:03:00,42.0,41.0,29.88,NE,49,7.0,15.0,97,0.08,,,0.23,0.000000,,2013-03-24 11:03:00,
2013-03-24 07:10:00,41.0,40.0,29.85,NE,49,7.0,17.0,96,0.08,,,0.31,0.000000,,2013-03-24 11:10:00,
2013-03-24 07:33:00,41.0,40.0,29.85,NE,49,7.0,17.0,96,0.08,,,0.31,0.000000,,2013-03-24 11:33:00,
2013-03-24 07:42:00,41.0,40.0,29.85,NE,49,7.0,17.0,96,0.08,,,0.31,0.000000,,2013-03-24 11:42:00,
2013-03-24 07:52:00,41.0,40.0,29.85,NE,49,7.0,17.0,96,0.08,,,0.31,0.000000,,2013-03-24 11:52:00,
2013-03-24 08:03:00,41.0,40.0,29.85,NE,49,7.0,17.0,96,0.08,,,0.31,0.000000,,2013-03-24 12:03:00,
2013-03-24 08:10:00,41.0,39.0,29.81,ENE,71,10.0,18.0,94,0.05,,,0.36,2.000000,,2013-03-24 12:10:00,
2013-03-24 08:32:00,41.0,39.0,29.81,ENE,71,10.0,18.0,94,0.05,,,0.36,2.000000,,2013-03-24 12:32:00,
2013-03-24 08:42:00,41.0,39.0,29.81,ENE,71,10.0,18.0,94,0.05,,,0.36,2.000000,,2013-03-24 12:42:00,
2013-03-24 08:52:00,41.0,39.0,29.81,ENE,71,10.0,18.0,94,0.05,,,0.36,2.000000,,2013-03-24 12:52:00,
2013-03-24 09:02:00,41.0,39.0,29.81,ENE,71,10.0,18.0,94,0.05,,,0.36,2.000000,,2013-03-24 13:02:00,
2013-03-24 09:10:00,42.0,40.0,29.91,NNW,347,7.0,17.0,94,0.04,,,0.40,8.000000,,2013-03-24 13:10:00,
2013-03-24 09:43:00,42.0,40.0,29.91,NNW,347,7.0,17.0,94,0.04,,,0.40,8.000000,,2013-03-24 13:43:00,
2013-03-24 09:52:00,42.0,40.0,29.91,NNW,347,7.0,17.0,94,0.04,,,0.40,8.000000,,2013-03-24 13:52:00,
2013-03-24 10:02:00,42.0,40.0,29.91,NNW,347,7.0,17.0,94,0.04,,,0.40,8.000000,,2013-03-24 14:02:00,
2013-03-24 10:10:00,41.0,40.0,29.82,NE,45,10.0,23.0,95,0.06,,,0.45,51.000000,,2013-03-24 14:10:00,
2013-03-24 10:33:00,41.0,40.0,29.82,NE,45,10.0,23.0,95,0.06,,,0.45,51.000000,,2013-03-24 14:33:00,
2013-03-24 10:43:00,41.0,40.0,29.82,NE,45,10.0,23.0,95,0.06,,,0.45,51.000000,,2013-03-24 14:43:00,
2013-03-24 10:53:00,41.0,40.0,29.82,NE,45,10.0,23.0,95,0.06,,,0.45,51.000000,,2013-03-24 14:53:00,
2013-03-24 11:02:00,41.0,40.0,29.82,NE,45,10.0,23.0,95,0.06,,,0.45,51.000000,,2013-03-24 15:02:00,
2013-03-24 11:10:00,42.0,40.0,29.81,NE,40,9.0,23.0,92,0.05,,,0.50,85.000000,,2013-03-24 15:10:00,
2013-03-24 11:43:00,42.0,40.0,29.81,NE,40,9.0,23.0,92,0.05,,,0.50,85.000000,,2013-03-24 15:43:00,
2013-03-24 11:53:00,42.0,40.0,29.81,NE,40,9.0,23.0,92,0.05,,,0.50,85.000000,,2013-03-24 15:53:00,
2013-03-24 12:03:00,42.0,40.0,29.81,NE,40,9.0,23.0,92,0.05,,,0.50,85.000000,,2013-03-24 16:03:00,
2013-03-24 12:10:00,40.0,38.0,29.76,NE,52,11.0,25.0,93,0.04,,,0.54,93.000000,,2013-03-24 16:10:00,
2013-03-24 12:43:00,40.0,38.0,29.76,NE,52,11.0,25.0,93,0.04,,,0.54,93.000000,,2013-03-24 16:43:00,
2013-03-24 12:53:00,40.0,38.0,29.76,NE,52,11.0,25.0,93,0.04,,,0.54,93.000000,,2013-03-24 16:53:00,
2013-03-24 13:03:00,40.0,38.0,29.76,NE,52,11.0,25.0,93,0.04,,,0.54,93.000000,,2013-03-24 17:03:00,
2013-03-24 13:10:00,41.0,39.0,29.77,NNE,12,7.0,29.0,93,0.05,,,0.59,103.000000,,2013-03-24 17:10:00,
2013-03-24 13:33:00,41.0,39.0,29.77,NNE,12,7.0,29.0,93,0.05,,,0.59,103.000000,,2013-03-24 17:33:00,
2013-03-24 13:43:00,41.0,39.0,29.77,NNE,12,7.0,29.0,93,0.05,,,0.59,103.000000,,2013-03-24 17:43:00,
2013-03-24 13:53:00,41.0,39.0,29.77,NNE,12,7.0,29.0,93,0.05,,,0.59,103.000000,,2013-03-24 17:53:00,
2013-03-24 14:03:00,41.0,39.0,29.77,NNE,12,7.0,29.0,93,0.05,,,0.59,103.000000,,2013-03-24 18:03:00,
2013-03-24 14:10:00,41.0,39.0,29.75,NNE,19,6.0,14.0,94,0.04,,,0.63,99.000000,,2013-03-24 18:10:00,
2013-03-24 14:33:00,41.0,39.0,29.75,NNE,19,6.0,14.0,94,0.04,,,0.63,99.000000,,2013-03-24 18:33:00,
2013-03-24 14:43:00,41.0,39.0,29.75,NNE,19,6.0,14.0,94,0.04,,,0.63,99.000000,,2013-03-24 18:43:00,
2013-03-24 14:53:00,41.0,39.0,29.75,NNE,19,6.0,14.0,94,0.04,,,0.63,99.000000,,2013-03-24 18:53:00,
2013-03-24 15:03:00,41.0,39.0,29.75,NNE,19,6.0,14.0,94,0.04,,,0.63,99.000000,,2013-03-24 19:03:00,
2013-03-24 15:10:00,41.0,39.0,29.72,NNE,31,6.0,18.0,92,0.03,,,0.66,150.000000,,2013-03-24 19:10:00,
2013-03-24 15:32:00,41.0,39.0,29.72,NNE,31,6.0,18.0,92,0.03,,,0.66,150.000000,,2013-03-24 19:32:00,
2013-03-24 15:43:00,41.0,39.0,29.72,NNE,31,6.0,18.0,92,0.03,,,0.66,150.000000,,2013-03-24 19:43:00,
2013-03-24 15:53:00,41.0,39.0,29.72,NNE,31,6.0,18.0,92,0.03,,,0.66,150.000000,,2013-03-24 19:53:00,
2013-03-24 16:03:00,41.0,39.0,29.72,NNE,31,6.0,18.0,92,0.03,,,0.66,150.000000,,2013-03-24 20:03:00,
2013-03-24 16:10:00,39.0,37.0,29.72,NE,34,5.0,16.0,91,0.03,,,0.69,94.000000,,2013-03-24 20:10:00,
2013-03-24 16:43:00,39.0,37.0,29.72,NE,34,5.0,16.0,91,0.03,,,0.69,94.000000,,2013-03-24 20:43:00,
2013-03-24 16:53:00,39.0,37.0,29.72,NE,34,5.0,16.0,91,0.03,,,0.69,94.000000,,2013-03-24 20:53:00,
2013-03-24 17:03:00,39.0,37.0,29.72,NE,34,5.0,16.0,91,0.03,,,0.69,94.000000,,2013-03-24 21:03:00,
2013-03-24 17:10:00,42.0,39.0,29.66,ENE,58,8.0,18.0,88,0.03,,,0.72,140.000000,,2013-03-24 21:10:00,
2013-03-24 17:33:00,42.0,39.0,29.66,ENE,58,8.0,18.0,88,0.03,,,0.72,140.000000,,2013-03-24 21:33:00,
2013-03-24 17:43:00,42.0,39.0,29.66,ENE,58,8.0,18.0,88,0.03,,,0.72,140.000000,,2013-03-24 21:43:00,
2013-03-24 17:53:00,42.0,39.0,29.66,ENE,58,8.0,18.0,88,0.03,,,0.72,140.000000,,2013-03-24 21:53:00,
2013-03-24 18:03:00,42.0,39.0,29.66,ENE,58,8.0,18.0,88,0.03,,,0.72,140.000000,,2013-03-24 22:03:00,
2013-03-24 18:10:00,39.0,35.0,29.69,NE,54,4.0,18.0,87,0.02,,,0.74,94.000000,,2013-03-24 22:10:00,
2013-03-24 18:33:00,39.0,35.0,29.69,NE,54,4.0,18.0,87,0.02,,,0.74,94.000000,,2013-03-24 22:33:00,
2013-03-24 18:43:00,39.0,35.0,29.69,NE,54,4.0,18.0,87,0.02,,,0.74,94.000000,,2013-03-24 22:43:00,
2013-03-24 18:53:00,39.0,35.0,29.69,NE,54,4.0,18.0,87,0.02,,,0.74,94.000000,,2013-03-24 22:53:00,
2013-03-24 19:03:00,39.0,35.0,29.69,NE,54,4.0,18.0,87,0.02,,,0.74,94.000000,,2013-03-24 23:03:00,
2013-03-24 19:10:00,40.0,37.0,29.70,ENE,71,4.0,8.0,88,0.03,,,0.77,23.000000,,2013-03-24 23:10:00,
2013-03-24 19:32:00,40.0,37.0,29.70,ENE,71,4.0,8.0,88,0.03,,,0.77,23.000000,,2013-03-24 23:32:00,
2013-03-24 19:43:00,40.0,37.0,29.70,ENE,71,4.0,8.0,88,0.03,,,0.77,23.000000,,2013-03-24 23:43:00,
2013-03-24 19:53:00,40.0,37.0,29.70,ENE,71,4.0,8.0,88,0.03,,,0.77,23.000000,,2013-03-24 23:53:00,
2013-03-24 20:02:00,40.0,37.0,29.70,ENE,71,4.0,8.0,88,0.03,,,0.77,23.000000,,2013-03-25 00:02:00,
2013-03-24 21:10:00,39.0,38.0,29.71,ENE,72,8.0,14.0,95,-99.99,,,0.81,0.000000,,2013-03-25 01:10:00,
2013-03-24 21:42:00,39.0,38.0,29.71,ENE,72,8.0,14.0,95,-99.99,,,0.81,0.000000,,2013-03-25 01:42:00,
2013-03-24 21:53:00,39.0,38.0,29.71,ENE,72,8.0,14.0,95,-99.99,,,0.81,0.000000,,2013-03-25 01:53:00,
2013-03-24 22:02:00,39.0,38.0,29.71,ENE,72,8.0,14.0,95,-99.99,,,0.81,0.000000,,2013-03-25 02:02:00,
2013-03-24 22:10:00,39.0,38.0,29.71,ENE,72,4.0,10.0,95,0.01,,,0.82,0.000000,,2013-03-25 02:10:00,
2013-03-24 22:43:00,39.0,38.0,29.71,ENE,72,4.0,10.0,95,0.01,,,0.82,0.000000,,2013-03-25 02:43:00,
2013-03-24 22:52:00,39.0,38.0,29.71,ENE,72,4.0,10.0,95,0.01,,,0.82,0.000000,,2013-03-25 02:52:00,
2013-03-24 23:03:00,39.0,38.0,29.71,ENE,72,4.0,10.0,95,0.01,,,0.82,0.000000,,2013-03-25 03:03:00,
2013-03-24 23:10:00,39.0,37.0,29.70,ENE,67,5.0,11.0,92,0.02,,,0.84,0.000000,,2013-03-25 03:10:00,
2013-03-24 23:34:00,39.0,37.0,29.70,ENE,67,5.0,11.0,92,0.02,,,0.84,0.000000,,2013-03-25 03:34:00,
2013-03-24 23:43:00,39.0,37.0,29.70,ENE,67,5.0,11.0,92,0.02,,,0.84,0.000000,,2013-03-25 03:43:00,
2013-03-24 23:53:00,39.0,37.0,29.70,ENE,67,5.0,11.0,92,0.02,,,0.84,0.000000,,2013-03-25 03:53:00,